createdAt,value
2019-05-02T00:01:25.109Z,7.22
2019-05-02T00:03:54.059Z,7.50
2019-05-02T00:06:23.678Z,7.20
2019-05-02T00:08:52.859Z,7.60
2019-05-02T00:11:21.967Z,8.73
2019-05-02T00:13:51.385Z,7.42
2019-05-02T00:16:20.560Z,10.05
2019-05-02T00:18:49.439Z,8.38
2019-05-02T00:21:18.457Z,9.83
2019-05-02T00:23:47.848Z,8.78
2019-05-02T00:26:16.840Z,8.18
2019-05-02T00:28:49.878Z,8.08
2019-05-02T00:31:23.037Z,8.98
2019-05-02T00:33:52.126Z,8.48
2019-05-02T00:36:25.526Z,10.25
2019-05-02T00:38:54.810Z,9.98
2019-05-02T00:41:23.915Z,8.53
2019-05-02T00:43:52.894Z,8.95
2019-05-02T00:46:22.089Z,9.20
2019-05-02T00:48:54.195Z,9.60
2019-05-02T00:51:26.686Z,11.40
2019-05-02T00:53:56.450Z,10.43
2019-05-02T00:56:25.564Z,9.03
2019-05-02T00:58:54.552Z,10.08
2019-05-02T01:01:29.562Z,10.48
2019-05-02T01:04:05.017Z,12.23
2019-05-02T01:06:34.028Z,9.68
2019-05-02T01:09:05.877Z,9.20
2019-05-02T01:11:55.140Z,9.28
2019-05-02T01:14:27.104Z,9.78
2019-05-02T01:16:56.203Z,9.90
2019-05-02T01:19:25.697Z,10.32
2019-05-02T01:21:57.455Z,8.45
2019-05-02T01:24:29.016Z,8.15
2019-05-02T01:27:06.507Z,10.95
2019-05-02T01:29:39.493Z,9.95
2019-05-02T01:32:29.950Z,8.80
2019-05-02T01:35:06.306Z,9.23
2019-05-02T01:37:42.505Z,10.75
2019-05-02T01:40:13.045Z,8.95
2019-05-02T01:42:44.544Z,8.70
2019-05-02T01:45:12.965Z,9.45
2019-05-02T01:47:43.689Z,9.45
2019-05-02T01:53:17.753Z,9.55
2019-05-02T01:55:46.021Z,9.93
2019-05-02T01:58:20.283Z,9.78
2019-05-02T02:00:45.988Z,8.88
2019-05-02T02:03:15.350Z,8.75
2019-05-02T02:05:44.526Z,7.17
2019-05-02T02:08:13.432Z,8.73
2019-05-02T02:10:43.894Z,7.05
2019-05-02T02:13:13.886Z,10.15
2019-05-02T02:15:42.971Z,10.18
2019-05-02T02:18:13.501Z,10.80
2019-05-02T02:21:00.626Z,10.93
2019-05-02T02:23:31.268Z,10.03
2019-05-02T02:26:02.303Z,8.65
2019-05-02T02:28:34.758Z,10.28
2019-05-02T02:31:04.845Z,10.95
2019-05-02T02:33:34.590Z,10.43
2019-05-02T02:36:03.769Z,10.58
2019-05-02T02:38:35.462Z,9.98
2019-05-02T02:41:06.379Z,10.98
2019-05-02T02:43:36.300Z,11.63
2019-05-02T02:46:13.280Z,10.13
2019-05-02T02:48:42.803Z,10.65
2019-05-02T02:51:22.234Z,8.65
2019-05-02T02:53:42.512Z,9.43
2019-05-02T02:56:11.724Z,8.53
2019-05-02T02:58:45.853Z,11.12
2019-05-02T03:01:11.440Z,8.53
2019-05-02T03:03:40.636Z,10.63
2019-05-02T03:06:09.521Z,12.82
2019-05-02T03:08:45.756Z,9.68
2019-05-02T03:11:10.834Z,11.25
2019-05-02T03:13:52.604Z,17.02
2019-05-02T03:16:25.461Z,11.12
2019-05-02T03:18:54.474Z,16.95
2019-05-02T03:21:23.655Z,17.02
2019-05-02T03:24:01.691Z,19.45
2019-05-02T03:26:24.111Z,27.00
2019-05-02T03:28:58.698Z,47.00
2019-05-02T03:31:29.523Z,24.00
2019-05-02T03:34:00.869Z,24.63
2019-05-02T03:36:37.589Z,25.62
2019-05-02T03:39:15.332Z,16.60
2019-05-02T03:41:38.030Z,17.12
2019-05-02T03:44:11.347Z,13.83
2019-05-02T03:46:37.642Z,12.33
2019-05-02T03:49:09.402Z,11.65
2019-05-02T03:51:37.690Z,9.68
2019-05-02T03:54:09.903Z,11.70
2019-05-02T03:56:38.422Z,8.75
2019-05-02T03:59:11.489Z,10.28
2019-05-02T04:01:41.192Z,10.60
2019-05-02T04:04:14.076Z,9.85
2019-05-02T04:06:41.994Z,11.75
2019-05-02T04:09:13.944Z,12.85
2019-05-02T04:11:43.350Z,10.80
2019-05-02T04:14:17.543Z,10.60
2019-05-02T04:16:48.598Z,9.88
2019-05-02T04:19:14.212Z,9.60
2019-05-02T04:21:43.873Z,10.58
2019-05-02T04:24:32.371Z,9.98
2019-05-02T04:27:01.479Z,9.08
2019-05-02T04:29:32.830Z,10.85
2019-05-02T04:32:04.512Z,10.75
2019-05-02T04:34:31.933Z,11.12
2019-05-02T04:37:03.655Z,10.80
2019-05-02T04:39:31.459Z,13.13
2019-05-02T04:42:05.511Z,11.60
2019-05-02T04:44:40.847Z,12.60
2019-05-02T04:47:11.125Z,12.18
2019-05-02T04:49:35.798Z,12.55
2019-05-02T04:52:10.454Z,11.48
2019-05-02T04:54:33.402Z,10.55
2019-05-02T04:57:02.809Z,9.23
2019-05-02T04:59:33.244Z,10.28
2019-05-02T05:02:02.543Z,14.18
2019-05-02T05:04:33.141Z,25.20
2019-05-02T05:07:02.048Z,25.72
2019-05-02T05:09:31.251Z,21.40
2019-05-02T05:12:02.594Z,21.12
2019-05-02T05:14:38.192Z,18.45
2019-05-02T05:17:01.413Z,21.35
2019-05-02T05:19:32.774Z,18.73
2019-05-02T05:22:04.652Z,16.80
2019-05-02T05:24:51.622Z,15.98
2019-05-02T05:27:22.758Z,14.90
2019-05-02T05:29:53.762Z,16.90
2019-05-02T05:32:21.998Z,14.80
2019-05-02T05:34:51.087Z,12.37
2019-05-02T05:37:20.088Z,14.18
2019-05-02T05:39:52.594Z,13.25
2019-05-02T05:42:23.157Z,15.28
2019-05-02T05:44:50.337Z,14.80
2019-05-02T05:47:21.293Z,14.33
2019-05-02T05:49:55.447Z,13.95
2019-05-02T05:52:20.477Z,16.87
2019-05-02T05:54:49.696Z,16.90
2019-05-02T05:57:21.087Z,15.90
2019-05-02T05:59:49.312Z,17.57
2019-05-02T06:02:20.139Z,12.75
2019-05-02T06:04:50.257Z,13.05
2019-05-02T06:07:20.191Z,15.10
2019-05-02T06:09:49.682Z,15.30
2019-05-02T06:12:18.561Z,19.82
2019-05-02T06:14:47.572Z,16.35
2019-05-02T06:17:16.562Z,16.77
2019-05-02T06:19:48.418Z,18.55
2019-05-02T06:22:24.462Z,18.87
2019-05-02T06:24:50.906Z,17.57
2019-05-02T06:27:20.788Z,21.68
2019-05-02T06:29:51.071Z,17.57
2019-05-02T06:32:20.714Z,18.98
2019-05-02T06:34:49.857Z,19.55
2019-05-02T06:37:18.948Z,15.48
2019-05-02T06:39:48.156Z,16.55
2019-05-02T06:42:17.255Z,18.90
2019-05-02T06:44:46.236Z,18.20
2019-05-02T06:47:15.435Z,19.07
2019-05-02T06:49:44.531Z,19.95
2019-05-02T06:52:13.610Z,19.87
2019-05-02T06:54:42.912Z,20.85
2019-05-02T06:57:11.897Z,13.22
2019-05-02T06:59:40.799Z,15.32
2019-05-02T07:02:10.128Z,24.05
2019-05-02T07:04:38.994Z,25.85
2019-05-02T07:07:08.012Z,29.70
2019-05-02T07:09:40.938Z,33.70
2019-05-02T07:12:09.939Z,29.63
2019-05-02T07:14:38.360Z,33.63
2019-05-02T07:17:20.566Z,23.67
2019-05-02T07:19:51.187Z,25.27
2019-05-02T07:22:20.593Z,24.20
2019-05-02T07:24:49.687Z,20.85
2019-05-02T07:27:18.877Z,28.35
2019-05-02T07:29:52.202Z,29.30
2019-05-02T07:32:19.157Z,26.70
2019-05-02T07:34:49.508Z,19.07
2019-05-02T07:37:18.645Z,20.70
2019-05-02T07:39:47.742Z,18.15
2019-05-02T07:42:16.518Z,25.55
2019-05-02T07:44:45.622Z,28.35
2019-05-02T07:47:14.921Z,28.25
2019-05-02T07:49:43.802Z,24.00
2019-05-02T07:52:12.801Z,22.42
2019-05-02T07:54:42.110Z,26.33
2019-05-02T07:57:11.201Z,26.02
2019-05-02T07:59:40.284Z,23.38
2019-05-02T08:02:09.803Z,16.10
2019-05-02T08:04:38.679Z,19.55
2019-05-02T08:07:07.781Z,22.80
2019-05-02T08:09:39.206Z,21.93
2019-05-02T08:12:07.913Z,22.27
2019-05-02T08:14:36.928Z,23.75
2019-05-02T08:17:10.607Z,20.85
2019-05-02T08:19:37.430Z,27.32
2019-05-02T08:22:13.233Z,27.82
2019-05-02T08:24:38.240Z,28.30
2019-05-02T08:27:12.948Z,25.02
2019-05-02T08:29:42.026Z,25.35
2019-05-02T08:32:11.554Z,24.90
2019-05-02T08:34:40.536Z,22.30
2019-05-02T08:37:09.408Z,22.55
2019-05-02T08:39:38.621Z,20.52
2019-05-02T08:42:07.968Z,26.30
2019-05-02T08:44:50.300Z,25.80
2019-05-02T08:47:18.808Z,21.60
2019-05-02T08:49:39.403Z,31.07
2019-05-02T08:52:08.401Z,24.05
2019-05-02T08:54:37.593Z,28.02
2019-05-02T08:57:06.581Z,24.63
2019-05-02T08:59:35.682Z,28.50
2019-05-02T09:02:04.986Z,21.57
2019-05-02T09:04:34.074Z,26.90
2019-05-02T09:07:03.095Z,26.77
2019-05-02T09:09:32.066Z,22.25
2019-05-02T09:12:11.401Z,22.95
2019-05-02T09:14:32.169Z,19.57
2019-05-02T09:17:08.477Z,28.62
2019-05-02T09:19:34.769Z,19.25
2019-05-02T09:22:07.379Z,23.47
2019-05-02T09:24:33.598Z,21.93
2019-05-02T09:27:02.588Z,19.00
2019-05-02T09:29:32.727Z,24.37
2019-05-02T09:32:02.250Z,21.73
2019-05-02T09:34:31.885Z,21.17
2019-05-02T09:37:02.687Z,23.95
2019-05-02T09:39:36.268Z,21.65
2019-05-02T09:42:06.527Z,22.67
2019-05-02T09:44:33.226Z,20.08
2019-05-02T09:47:02.531Z,19.35
2019-05-02T09:49:32.445Z,22.98
2019-05-02T09:52:03.276Z,19.60
2019-05-02T09:54:36.858Z,24.40
2019-05-02T09:57:03.218Z,22.58
2019-05-02T09:59:33.290Z,20.48
2019-05-02T10:02:03.538Z,26.85
2019-05-02T10:04:32.706Z,20.37
2019-05-02T10:07:02.544Z,23.12
2019-05-02T10:09:32.379Z,24.47
2019-05-02T10:12:02.041Z,26.02
2019-05-02T10:14:33.019Z,23.35
2019-05-02T10:17:07.003Z,28.87
2019-05-02T10:19:33.159Z,30.23
2019-05-02T10:22:02.069Z,23.00
2019-05-02T10:24:32.232Z,20.20
2019-05-02T10:27:04.298Z,24.50
2019-05-02T10:29:32.948Z,24.80
2019-05-02T10:32:02.422Z,24.30
2019-05-02T10:34:32.972Z,26.77
2019-05-02T10:37:03.125Z,29.37
2019-05-02T10:39:34.087Z,30.77
2019-05-02T10:42:03.099Z,33.05
2019-05-02T10:44:36.190Z,28.15
2019-05-02T10:47:03.002Z,26.55
2019-05-02T10:49:36.321Z,28.23
2019-05-02T10:52:05.330Z,31.95
2019-05-02T10:54:37.474Z,32.25
2019-05-02T10:57:05.146Z,37.50
2019-05-02T10:59:34.022Z,31.85
2019-05-02T11:02:14.405Z,36.10
2019-05-02T11:04:44.915Z,32.13
2019-05-02T11:07:17.061Z,38.42
2019-05-02T11:09:44.651Z,35.60
2019-05-02T11:12:16.444Z,30.25
2019-05-02T11:14:53.697Z,39.42
2019-05-02T11:17:32.337Z,32.50
2019-05-02T11:20:03.138Z,31.70
2019-05-02T11:22:32.218Z,35.58
2019-05-02T11:25:02.043Z,40.80
2019-05-02T11:27:32.864Z,37.90
2019-05-02T11:30:02.747Z,33.42
2019-05-02T11:32:32.699Z,37.25
2019-05-02T11:35:02.929Z,45.28
2019-05-02T11:37:32.848Z,31.82
2019-05-02T11:40:05.682Z,27.15
2019-05-02T11:42:32.600Z,35.33
2019-05-02T11:45:02.684Z,33.90
2019-05-02T11:47:32.886Z,33.50
2019-05-02T11:50:02.546Z,28.65
2019-05-02T11:52:35.668Z,30.40
2019-05-02T11:55:02.366Z,24.95
2019-05-02T11:57:33.167Z,30.70
2019-05-02T12:00:05.048Z,27.05
2019-05-02T12:02:37.244Z,29.32
2019-05-02T12:05:08.693Z,30.68
2019-05-02T12:07:37.568Z,24.90
2019-05-02T12:10:07.655Z,26.77
2019-05-02T12:12:36.775Z,30.52
2019-05-02T12:15:06.936Z,27.55
2019-05-02T12:17:36.211Z,28.85
2019-05-02T12:20:06.231Z,25.48
2019-05-02T12:22:35.412Z,32.10
2019-05-02T12:25:04.610Z,30.25
2019-05-02T12:27:33.611Z,21.48
2019-05-02T12:30:03.317Z,26.35
2019-05-02T12:32:33.456Z,28.65
2019-05-02T12:35:02.941Z,25.97
2019-05-02T12:37:32.702Z,18.75
2019-05-02T12:40:02.700Z,25.48
2019-05-02T12:42:33.025Z,19.12
2019-05-02T12:45:02.958Z,19.77
2019-05-02T12:47:32.313Z,24.65
2019-05-02T12:50:03.185Z,17.57
2019-05-02T12:52:32.100Z,23.22
2019-05-02T12:55:02.248Z,16.42
2019-05-02T12:57:32.104Z,18.77
2019-05-02T13:00:01.856Z,13.58
2019-05-02T13:02:35.687Z,12.18
2019-05-02T13:05:05.708Z,17.95
2019-05-02T13:07:34.806Z,13.58
2019-05-02T13:10:05.265Z,13.32
2019-05-02T13:12:38.832Z,11.45
2019-05-02T13:15:08.300Z,13.70
2019-05-02T13:17:43.920Z,12.45
2019-05-02T13:20:12.283Z,9.98
2019-05-02T13:22:48.731Z,12.60
2019-05-02T13:25:19.364Z,9.75
2019-05-02T13:27:48.383Z,13.25
2019-05-02T13:30:42.862Z,10.43
2019-05-02T13:33:09.162Z,9.28
2019-05-02T13:35:42.333Z,11.38
2019-05-02T13:38:12.988Z,9.83
2019-05-02T13:40:43.528Z,8.50
2019-05-02T13:43:12.946Z,8.55
2019-05-02T13:45:50.226Z,8.63
2019-05-02T13:48:19.325Z,10.13
2019-05-02T13:50:48.407Z,8.83
2019-05-02T13:53:17.496Z,7.67
2019-05-02T13:55:54.277Z,8.33
2019-05-02T13:58:28.798Z,8.83
2019-05-02T14:00:53.898Z,9.75
2019-05-02T14:03:23.207Z,8.13
2019-05-02T14:05:53.916Z,10.63
2019-05-02T14:08:27.491Z,9.23
2019-05-02T14:11:09.131Z,9.33
2019-05-02T14:13:38.299Z,8.63
2019-05-02T14:16:07.204Z,9.38
2019-05-02T14:18:36.400Z,8.55
2019-05-02T14:21:05.511Z,11.50
2019-05-02T14:23:34.501Z,13.30
2019-05-02T14:26:03.570Z,11.45
2019-05-02T14:28:36.316Z,14.90
2019-05-02T14:31:03.226Z,13.85
2019-05-02T14:33:33.956Z,16.50
2019-05-02T14:36:03.259Z,18.60
2019-05-02T14:38:32.374Z,16.45
2019-05-02T14:41:13.929Z,15.35
2019-05-02T14:43:55.736Z,17.77
2019-05-02T14:46:28.732Z,18.50
2019-05-02T14:48:56.364Z,14.07
2019-05-02T14:51:27.575Z,14.75
2019-05-02T14:53:57.344Z,14.10
2019-05-02T14:56:47.888Z,16.12
2019-05-02T14:59:19.739Z,13.28
2019-05-02T15:01:57.698Z,10.35
2019-05-02T15:04:26.891Z,12.60
2019-05-02T15:06:55.994Z,12.33
2019-05-02T15:09:26.868Z,9.18
2019-05-02T15:11:58.785Z,9.78
2019-05-02T15:14:28.811Z,11.80
2019-05-02T15:16:58.534Z,11.83
2019-05-02T15:19:27.982Z,9.33
2019-05-02T15:21:57.011Z,10.55
2019-05-02T15:24:27.786Z,11.65
2019-05-02T15:26:56.738Z,12.33
2019-05-02T15:29:27.290Z,10.25
2019-05-02T15:32:05.252Z,13.00
2019-05-02T15:34:46.226Z,11.00
2019-05-02T15:37:12.398Z,11.22
2019-05-02T15:42:12.110Z,10.03
2019-05-02T15:44:42.647Z,12.40
2019-05-02T15:47:12.446Z,12.78
2019-05-02T15:49:50.166Z,10.05
2019-05-02T15:52:24.222Z,9.95
2019-05-02T15:54:55.415Z,10.38
2019-05-02T15:57:24.382Z,10.72
2019-05-02T15:59:51.952Z,6.75
2019-05-02T16:02:26.756Z,6.20
2019-05-02T16:04:57.114Z,6.55
2019-05-02T16:07:26.294Z,5.55
2019-05-02T16:09:57.243Z,5.17
2019-05-02T16:12:27.045Z,5.22
2019-05-02T16:14:56.557Z,5.20
2019-05-02T16:17:27.201Z,4.37
2019-05-02T16:20:07.028Z,4.83
2019-05-02T16:22:29.676Z,12.90
2019-05-02T16:24:58.776Z,4.30
2019-05-02T16:27:45.582Z,4.33
2019-05-02T16:30:18.865Z,4.80
2019-05-02T16:32:58.827Z,4.28
2019-05-02T16:35:29.866Z,4.75
2019-05-02T16:37:58.956Z,4.70
2019-05-02T16:40:31.866Z,3.20
2019-05-02T16:42:59.196Z,3.12
2019-05-02T16:45:28.185Z,3.40
2019-05-02T16:47:59.206Z,3.25
2019-05-02T16:50:34.778Z,2.62
2019-05-02T16:52:58.561Z,2.90
2019-05-02T16:55:27.640Z,2.95
2019-05-02T16:58:02.681Z,2.45
2019-05-02T17:00:27.992Z,2.83
2019-05-02T17:02:56.970Z,2.87
2019-05-02T17:05:26.062Z,6.85
2019-05-02T17:08:10.746Z,2.50
2019-05-02T17:10:42.211Z,3.05
2019-05-02T17:13:12.630Z,4.08
2019-05-02T17:15:42.806Z,2.70
2019-05-02T17:18:14.623Z,2.52
2019-05-02T17:20:46.961Z,3.27
2019-05-02T17:23:13.606Z,3.50
2019-05-02T17:25:42.806Z,2.30
2019-05-02T17:28:13.290Z,2.55
2019-05-02T17:30:43.106Z,2.17
2019-05-02T17:33:16.081Z,2.00
2019-05-02T17:35:49.426Z,3.20
2019-05-02T17:38:13.599Z,2.83
2019-05-02T17:40:42.703Z,3.15
2019-05-02T17:43:11.902Z,2.62
2019-05-02T17:45:40.778Z,2.55
2019-05-02T17:48:16.178Z,2.00
2019-05-02T17:50:49.389Z,2.95
2019-05-02T17:53:16.164Z,2.15
2019-05-02T17:55:45.570Z,3.47
2019-05-02T17:58:16.600Z,3.08
2019-05-02T18:00:57.216Z,2.55
2019-05-02T18:03:31.228Z,2.58
2019-05-02T18:05:57.312Z,3.35
2019-05-02T18:08:27.126Z,2.50
2019-05-02T18:11:00.142Z,3.15
2019-05-02T18:13:29.234Z,2.60
2019-05-02T18:15:57.616Z,3.25
2019-05-02T18:18:26.676Z,2.60
2019-05-02T18:20:55.766Z,2.80
2019-05-02T18:23:27.578Z,2.70
2019-05-02T18:25:57.448Z,5.95
2019-05-02T18:28:26.579Z,3.12
2019-05-02T18:30:57.332Z,3.60
2019-05-02T18:33:26.566Z,3.50
2019-05-02T18:35:55.462Z,4.83
2019-05-02T18:38:24.661Z,4.22
2019-05-02T18:40:55.329Z,3.77
2019-05-02T18:43:24.182Z,3.67
2019-05-02T18:45:53.470Z,3.00
2019-05-02T18:48:22.611Z,2.65
2019-05-02T18:50:52.650Z,4.55
2019-05-02T18:53:24.294Z,3.70
2019-05-02T18:55:56.657Z,3.12
2019-05-02T18:58:23.372Z,3.35
2019-05-02T19:00:52.474Z,5.90
2019-05-02T19:03:22.976Z,2.35
2019-05-02T19:05:57.357Z,3.08
2019-05-02T19:08:31.279Z,3.02
2019-05-02T19:11:04.717Z,2.67
2019-05-02T19:13:24.898Z,2.60
2019-05-02T19:15:54.218Z,2.95
2019-05-02T19:18:23.296Z,2.30
2019-05-02T19:20:57.714Z,2.60
2019-05-02T19:23:27.316Z,2.85
2019-05-02T19:25:56.298Z,2.55
2019-05-02T19:28:34.736Z,2.40
2019-05-02T19:31:06.897Z,2.30
2019-05-02T19:33:37.534Z,2.40
2019-05-02T19:36:05.198Z,2.58
2019-05-02T19:38:34.855Z,2.02
2019-05-02T19:41:08.858Z,2.58
2019-05-02T19:43:35.059Z,2.65
2019-05-02T19:46:04.751Z,3.02
2019-05-02T19:48:36.841Z,3.33
2019-05-02T19:51:05.542Z,2.98
2019-05-02T19:53:34.487Z,3.75
2019-05-02T19:56:06.752Z,3.92
2019-05-02T19:58:36.692Z,3.40
2019-05-02T20:01:09.166Z,2.60
2019-05-02T20:03:38.123Z,3.00
2019-05-02T20:06:08.254Z,2.85
2019-05-02T20:08:37.243Z,2.60
2019-05-02T20:11:06.241Z,4.50
2019-05-02T20:13:35.569Z,3.33
2019-05-02T20:16:09.157Z,2.87
2019-05-02T20:18:47.361Z,3.05
2019-05-02T20:21:34.268Z,3.35
2019-05-02T20:24:04.285Z,4.97
2019-05-02T20:26:33.788Z,2.95
2019-05-02T20:29:02.676Z,2.52
2019-05-02T20:31:32.150Z,2.60
2019-05-02T20:34:02.536Z,2.90
2019-05-02T20:36:32.191Z,2.72
2019-05-02T20:39:02.518Z,2.35
2019-05-02T20:41:31.536Z,2.98
2019-05-02T20:44:02.523Z,3.35
2019-05-02T20:46:32.806Z,3.42
2019-05-02T20:49:02.117Z,2.85
2019-05-02T20:51:31.916Z,3.15
2019-05-02T20:54:02.256Z,3.50
2019-05-02T20:56:32.140Z,3.20
2019-05-02T20:59:02.046Z,3.52
2019-05-02T21:01:32.200Z,4.78
2019-05-02T21:04:02.721Z,1.90
2019-05-02T21:06:44.110Z,3.08
2019-05-02T21:09:21.908Z,3.33
2019-05-02T21:11:52.735Z,3.37
2019-05-02T21:14:21.835Z,2.62
2019-05-02T21:16:50.935Z,3.67
2019-05-02T21:19:21.757Z,4.03
2019-05-02T21:21:52.636Z,6.25
2019-05-02T21:24:22.099Z,3.90
2019-05-02T21:26:52.518Z,2.55
2019-05-02T21:29:22.890Z,2.67
2019-05-02T21:31:52.244Z,2.05
2019-05-02T21:34:22.355Z,2.20
2019-05-02T21:36:51.865Z,2.27
2019-05-02T21:39:22.549Z,4.22
2019-05-02T21:41:51.829Z,6.58
2019-05-02T21:44:22.301Z,3.08
2019-05-02T21:46:51.857Z,3.92
2019-05-02T21:49:39.160Z,3.27
2019-05-02T21:52:18.612Z,3.60
2019-05-02T21:54:55.389Z,6.95
2019-05-02T21:57:24.498Z,2.67
2019-05-02T21:59:54.700Z,5.00
2019-05-02T22:02:24.101Z,5.35
2019-05-02T22:04:53.200Z,4.40
2019-05-02T22:07:22.291Z,2.30
2019-05-02T22:09:52.390Z,2.80
2019-05-02T22:12:22.539Z,3.42
2019-05-02T22:14:52.779Z,3.37
2019-05-02T22:17:22.156Z,3.00
2019-05-02T22:19:52.469Z,2.52
2019-05-02T22:22:22.839Z,4.05
2019-05-02T22:24:54.702Z,2.30
2019-05-02T22:27:23.755Z,2.10
2019-05-02T22:29:54.666Z,4.97
2019-05-02T22:32:23.275Z,4.45
2019-05-02T22:34:53.515Z,3.10
2019-05-02T22:37:24.446Z,3.08
2019-05-02T22:39:58.142Z,3.17
2019-05-02T22:42:27.025Z,3.50
2019-05-02T22:44:56.020Z,3.33
2019-05-02T22:47:25.226Z,3.00
2019-05-02T22:49:54.221Z,4.62
2019-05-02T22:52:23.313Z,3.45
2019-05-02T22:54:52.513Z,4.03
2019-05-02T22:57:22.589Z,2.50
2019-05-02T22:59:51.920Z,4.58
2019-05-02T23:02:22.076Z,2.77
2019-05-02T23:04:52.638Z,3.62
2019-05-02T23:07:22.303Z,6.03
2019-05-02T23:09:55.889Z,4.15
2019-05-02T23:12:25.148Z,3.90
2019-05-02T23:14:54.282Z,3.77
2019-05-02T23:17:23.487Z,3.58
2019-05-02T23:19:52.773Z,2.62
2019-05-02T23:22:21.956Z,5.03
2019-05-02T23:24:55.374Z,2.42
2019-05-02T23:27:26.016Z,4.12
2019-05-02T23:29:54.997Z,2.20
2019-05-02T23:32:24.198Z,3.17
2019-05-02T23:34:53.298Z,3.65
2019-05-02T23:37:22.387Z,3.22
2019-05-02T23:39:52.257Z,2.40
2019-05-02T23:42:21.873Z,3.47
2019-05-02T23:44:51.869Z,3.77
2019-05-02T23:47:22.478Z,2.40
2019-05-02T23:49:52.048Z,2.98
2019-05-02T23:52:22.508Z,2.30
2019-05-02T23:54:52.570Z,5.78
2019-05-02T23:57:22.935Z,2.98
2019-05-02T23:59:52.232Z,4.87
